sensor_id;sensor_type;location;lat;lon;timestamp;P1;durP1;ratioP1;P2;durP2;ratioP2
16862;SDS011;52193;48.216;-1.698;2023-03-03T00:01:10;16.55;;;15.02;;
16862;SDS011;52193;48.216;-1.698;2023-03-03T00:03:37;16.58;;;14.98;;
16862;SDS011;52193;48.216;-1.698;2023-03-03T00:06:04;15.60;;;14.07;;
16862;SDS011;52193;48.216;-1.698;2023-03-03T00:08:37;15.43;;;14.23;;
16862;SDS011;52193;48.216;-1.698;2023-03-03T00:11:04;15.75;;;14.25;;
16862;SDS011;52193;48.216;-1.698;2023-03-03T00:13:32;15.77;;;14.25;;
16862;SDS011;52193;48.216;-1.698;2023-03-03T00:16:15;15.25;;;13.80;;
16862;SDS011;52193;48.216;-1.698;2023-03-03T00:18:46;15.63;;;14.23;;
16862;SDS011;52193;48.216;-1.698;2023-03-03T00:21:24;16.50;;;14.75;;
16862;SDS011;52193;48.216;-1.698;2023-03-03T00:23:55;15.00;;;13.63;;
16862;SDS011;52193;48.216;-1.698;2023-03-03T00:26:36;15.50;;;13.73;;
16862;SDS011;52193;48.216;-1.698;2023-03-03T00:29:17;15.45;;;13.82;;
16862;SDS011;52193;48.216;-1.698;2023-03-03T00:31:54;15.15;;;13.68;;
16862;SDS011;52193;48.216;-1.698;2023-03-03T00:34:34;14.00;;;12.80;;
16862;SDS011;52193;48.216;-1.698;2023-03-03T00:37:01;13.68;;;12.32;;
16862;SDS011;52193;48.216;-1.698;2023-03-03T00:39:30;14.48;;;13.05;;
16862;SDS011;52193;48.216;-1.698;2023-03-03T00:42:04;14.85;;;12.98;;
16862;SDS011;52193;48.216;-1.698;2023-03-03T00:44:38;13.70;;;12.48;;
16862;SDS011;52193;48.216;-1.698;2023-03-03T00:47:17;14.45;;;13.13;;
16862;SDS011;52193;48.216;-1.698;2023-03-03T00:49:50;14.13;;;12.45;;
16862;SDS011;52193;48.216;-1.698;2023-03-03T00:52:18;14.25;;;12.85;;
16862;SDS011;52193;48.216;-1.698;2023-03-03T00:54:47;13.27;;;12.07;;
16862;SDS011;52193;48.216;-1.698;2023-03-03T00:57:14;13.52;;;12.25;;
16862;SDS011;52193;48.216;-1.698;2023-03-03T00:59:41;13.85;;;12.43;;
16862;SDS011;52193;48.216;-1.698;2023-03-03T01:02:08;13.52;;;12.32;;
16862;SDS011;52193;48.216;-1.698;2023-03-03T01:04:35;14.75;;;12.75;;
16862;SDS011;52193;48.216;-1.698;2023-03-03T01:07:02;14.90;;;13.50;;
16862;SDS011;52193;48.216;-1.698;2023-03-03T01:09:29;15.57;;;12.80;;
16862;SDS011;52193;48.216;-1.698;2023-03-03T01:11:57;14.20;;;12.80;;
16862;SDS011;52193;48.216;-1.698;2023-03-03T01:14:25;12.30;;;11.20;;
16862;SDS011;52193;48.216;-1.698;2023-03-03T01:16:52;13.38;;;11.48;;
16862;SDS011;52193;48.216;-1.698;2023-03-03T01:19:19;12.95;;;11.65;;
16862;SDS011;52193;48.216;-1.698;2023-03-03T01:21:46;13.23;;;11.93;;
16862;SDS011;52193;48.216;-1.698;2023-03-03T01:24:13;13.88;;;12.57;;
16862;SDS011;52193;48.216;-1.698;2023-03-03T01:26:40;14.43;;;12.68;;
16862;SDS011;52193;48.216;-1.698;2023-03-03T01:29:08;13.50;;;12.15;;
16862;SDS011;52193;48.216;-1.698;2023-03-03T01:31:35;13.63;;;12.25;;
16862;SDS011;52193;48.216;-1.698;2023-03-03T01:34:02;12.95;;;11.60;;
16862;SDS011;52193;48.216;-1.698;2023-03-03T01:36:29;14.13;;;12.18;;
16862;SDS011;52193;48.216;-1.698;2023-03-03T01:38:56;14.27;;;11.05;;
16862;SDS011;52193;48.216;-1.698;2023-03-03T01:41:25;12.90;;;11.60;;
16862;SDS011;52193;48.216;-1.698;2023-03-03T01:43:54;14.98;;;12.20;;
16862;SDS011;52193;48.216;-1.698;2023-03-03T01:46:28;12.43;;;11.27;;
16862;SDS011;52193;48.216;-1.698;2023-03-03T01:49:04;13.43;;;11.68;;
16862;SDS011;52193;48.216;-1.698;2023-03-03T01:51:33;13.43;;;12.07;;
16862;SDS011;52193;48.216;-1.698;2023-03-03T01:54:03;12.93;;;11.25;;
16862;SDS011;52193;48.216;-1.698;2023-03-03T01:56:34;15.48;;;11.27;;
16862;SDS011;52193;48.216;-1.698;2023-03-03T01:59:02;11.73;;;10.52;;
16862;SDS011;52193;48.216;-1.698;2023-03-03T02:01:33;13.65;;;11.23;;
16862;SDS011;52193;48.216;-1.698;2023-03-03T02:04:00;13.18;;;11.80;;
16862;SDS011;52193;48.216;-1.698;2023-03-03T02:06:28;14.13;;;11.60;;
16862;SDS011;52193;48.216;-1.698;2023-03-03T02:08:59;12.38;;;10.48;;
16862;SDS011;52193;48.216;-1.698;2023-03-03T02:11:30;12.32;;;11.25;;
16862;SDS011;52193;48.216;-1.698;2023-03-03T02:13:59;13.55;;;11.07;;
16862;SDS011;52193;48.216;-1.698;2023-03-03T02:16:26;12.50;;;11.20;;
16862;SDS011;52193;48.216;-1.698;2023-03-03T02:18:55;13.20;;;11.85;;
16862;SDS011;52193;48.216;-1.698;2023-03-03T02:21:22;11.75;;;10.65;;
16862;SDS011;52193;48.216;-1.698;2023-03-03T02:23:52;12.57;;;11.27;;
16862;SDS011;52193;48.216;-1.698;2023-03-03T02:26:26;16.55;;;12.45;;
16862;SDS011;52193;48.216;-1.698;2023-03-03T02:28:54;14.38;;;12.25;;
16862;SDS011;52193;48.216;-1.698;2023-03-03T02:31:22;12.55;;;11.35;;
16862;SDS011;52193;48.216;-1.698;2023-03-03T02:33:51;14.35;;;11.98;;
16862;SDS011;52193;48.216;-1.698;2023-03-03T02:36:20;15.82;;;11.98;;
16862;SDS011;52193;48.216;-1.698;2023-03-03T02:38:48;13.75;;;12.35;;
16862;SDS011;52193;48.216;-1.698;2023-03-03T02:41:27;14.95;;;12.48;;
16862;SDS011;52193;48.216;-1.698;2023-03-03T02:43:58;13.80;;;12.25;;
16862;SDS011;52193;48.216;-1.698;2023-03-03T02:46:27;13.02;;;11.82;;
16862;SDS011;52193;48.216;-1.698;2023-03-03T02:48:57;14.55;;;13.05;;
16862;SDS011;52193;48.216;-1.698;2023-03-03T02:51:24;14.95;;;12.93;;
16862;SDS011;52193;48.216;-1.698;2023-03-03T02:53:51;16.15;;;13.80;;
16862;SDS011;52193;48.216;-1.698;2023-03-03T02:56:18;16.20;;;14.43;;
16862;SDS011;52193;48.216;-1.698;2023-03-03T02:58:46;16.80;;;15.02;;
16862;SDS011;52193;48.216;-1.698;2023-03-03T03:01:13;17.65;;;15.82;;
16862;SDS011;52193;48.216;-1.698;2023-03-03T03:03:40;16.80;;;15.13;;
16862;SDS011;52193;48.216;-1.698;2023-03-03T03:06:07;17.50;;;15.63;;
16862;SDS011;52193;48.216;-1.698;2023-03-03T03:08:34;19.08;;;16.52;;
16862;SDS011;52193;48.216;-1.698;2023-03-03T03:11:01;18.65;;;16.77;;
16862;SDS011;52193;48.216;-1.698;2023-03-03T03:13:29;17.75;;;15.93;;
16862;SDS011;52193;48.216;-1.698;2023-03-03T03:15:59;17.48;;;15.63;;
16862;SDS011;52193;48.216;-1.698;2023-03-03T03:18:26;18.08;;;16.30;;
16862;SDS011;52193;48.216;-1.698;2023-03-03T03:20:53;19.25;;;17.27;;
16862;SDS011;52193;48.216;-1.698;2023-03-03T03:23:20;19.48;;;17.48;;
16862;SDS011;52193;48.216;-1.698;2023-03-03T03:25:47;19.70;;;17.77;;
16862;SDS011;52193;48.216;-1.698;2023-03-03T03:28:15;19.50;;;17.60;;
16862;SDS011;52193;48.216;-1.698;2023-03-03T03:30:43;22.05;;;19.92;;
16862;SDS011;52193;48.216;-1.698;2023-03-03T03:33:12;20.15;;;18.25;;
16862;SDS011;52193;48.216;-1.698;2023-03-03T03:35:38;19.48;;;17.63;;
16862;SDS011;52193;48.216;-1.698;2023-03-03T03:38:09;20.63;;;18.58;;
16862;SDS011;52193;48.216;-1.698;2023-03-03T03:40:36;21.50;;;19.35;;
16862;SDS011;52193;48.216;-1.698;2023-03-03T03:43:03;22.67;;;20.40;;
16862;SDS011;52193;48.216;-1.698;2023-03-03T03:45:30;22.13;;;19.80;;
16862;SDS011;52193;48.216;-1.698;2023-03-03T03:47:57;20.33;;;18.35;;
16862;SDS011;52193;48.216;-1.698;2023-03-03T03:50:25;22.17;;;20.10;;
16862;SDS011;52193;48.216;-1.698;2023-03-03T03:52:52;21.30;;;19.30;;
16862;SDS011;52193;48.216;-1.698;2023-03-03T03:55:19;22.40;;;20.08;;
16862;SDS011;52193;48.216;-1.698;2023-03-03T03:57:46;23.02;;;20.70;;
16862;SDS011;52193;48.216;-1.698;2023-03-03T04:00:14;22.40;;;20.40;;
16862;SDS011;52193;48.216;-1.698;2023-03-03T04:02:41;22.33;;;20.00;;
16862;SDS011;52193;48.216;-1.698;2023-03-03T04:05:08;23.95;;;21.55;;
16862;SDS011;52193;48.216;-1.698;2023-03-03T04:07:37;25.17;;;22.52;;
16862;SDS011;52193;48.216;-1.698;2023-03-03T04:10:04;25.30;;;22.35;;
16862;SDS011;52193;48.216;-1.698;2023-03-03T04:12:32;26.00;;;23.25;;
16862;SDS011;52193;48.216;-1.698;2023-03-03T04:15:02;26.70;;;23.90;;
16862;SDS011;52193;48.216;-1.698;2023-03-03T04:17:30;29.65;;;26.40;;
16862;SDS011;52193;48.216;-1.698;2023-03-03T04:19:57;26.63;;;24.00;;
16862;SDS011;52193;48.216;-1.698;2023-03-03T04:22:25;26.33;;;23.60;;
16862;SDS011;52193;48.216;-1.698;2023-03-03T04:24:53;30.08;;;26.85;;
16862;SDS011;52193;48.216;-1.698;2023-03-03T04:27:20;27.65;;;24.85;;
16862;SDS011;52193;48.216;-1.698;2023-03-03T04:29:47;27.00;;;24.50;;
16862;SDS011;52193;48.216;-1.698;2023-03-03T04:32:14;29.88;;;26.73;;
16862;SDS011;52193;48.216;-1.698;2023-03-03T04:34:42;28.75;;;25.67;;
16862;SDS011;52193;48.216;-1.698;2023-03-03T04:37:09;29.13;;;26.08;;
16862;SDS011;52193;48.216;-1.698;2023-03-03T04:39:36;28.02;;;25.15;;
16862;SDS011;52193;48.216;-1.698;2023-03-03T04:42:04;29.42;;;26.42;;
16862;SDS011;52193;48.216;-1.698;2023-03-03T04:44:31;29.88;;;26.90;;
16862;SDS011;52193;48.216;-1.698;2023-03-03T04:46:58;29.23;;;26.25;;
16862;SDS011;52193;48.216;-1.698;2023-03-03T04:49:25;29.15;;;26.20;;
16862;SDS011;52193;48.216;-1.698;2023-03-03T04:51:52;29.95;;;26.95;;
16862;SDS011;52193;48.216;-1.698;2023-03-03T04:54:19;30.23;;;27.02;;
16862;SDS011;52193;48.216;-1.698;2023-03-03T04:56:46;29.98;;;26.92;;
16862;SDS011;52193;48.216;-1.698;2023-03-03T04:59:14;29.83;;;26.92;;
16862;SDS011;52193;48.216;-1.698;2023-03-03T05:01:41;30.20;;;27.13;;
16862;SDS011;52193;48.216;-1.698;2023-03-03T05:04:10;28.58;;;25.92;;
16862;SDS011;52193;48.216;-1.698;2023-03-03T05:06:37;28.77;;;25.92;;
16862;SDS011;52193;48.216;-1.698;2023-03-03T05:09:05;31.13;;;28.00;;
16862;SDS011;52193;48.216;-1.698;2023-03-03T05:11:31;32.72;;;29.42;;
16862;SDS011;52193;48.216;-1.698;2023-03-03T05:13:58;33.95;;;30.30;;
16862;SDS011;52193;48.216;-1.698;2023-03-03T05:16:28;30.88;;;27.77;;
16862;SDS011;52193;48.216;-1.698;2023-03-03T05:18:55;32.10;;;28.75;;
16862;SDS011;52193;48.216;-1.698;2023-03-03T05:21:22;32.33;;;29.15;;
16862;SDS011;52193;48.216;-1.698;2023-03-03T05:23:49;31.05;;;27.92;;
16862;SDS011;52193;48.216;-1.698;2023-03-03T05:26:16;32.33;;;29.13;;
16862;SDS011;52193;48.216;-1.698;2023-03-03T05:28:43;30.40;;;27.55;;
16862;SDS011;52193;48.216;-1.698;2023-03-03T05:31:10;36.63;;;32.65;;
16862;SDS011;52193;48.216;-1.698;2023-03-03T05:33:38;34.05;;;30.65;;
16862;SDS011;52193;48.216;-1.698;2023-03-03T05:36:06;35.75;;;31.98;;
16862;SDS011;52193;48.216;-1.698;2023-03-03T05:38:33;31.02;;;27.95;;
16862;SDS011;52193;48.216;-1.698;2023-03-03T05:41:00;33.53;;;30.30;;
16862;SDS011;52193;48.216;-1.698;2023-03-03T05:43:27;33.72;;;30.33;;
16862;SDS011;52193;48.216;-1.698;2023-03-03T05:45:54;33.53;;;30.25;;
16862;SDS011;52193;48.216;-1.698;2023-03-03T05:48:21;33.55;;;30.13;;
16862;SDS011;52193;48.216;-1.698;2023-03-03T05:50:50;37.70;;;33.85;;
16862;SDS011;52193;48.216;-1.698;2023-03-03T05:53:17;36.25;;;32.58;;
16862;SDS011;52193;48.216;-1.698;2023-03-03T05:55:44;32.50;;;29.17;;
16862;SDS011;52193;48.216;-1.698;2023-03-03T05:58:11;34.75;;;31.42;;
16862;SDS011;52193;48.216;-1.698;2023-03-03T06:00:38;35.60;;;31.95;;
16862;SDS011;52193;48.216;-1.698;2023-03-03T06:03:05;34.58;;;31.25;;
16862;SDS011;52193;48.216;-1.698;2023-03-03T06:05:31;33.00;;;29.50;;
16862;SDS011;52193;48.216;-1.698;2023-03-03T06:08:00;35.72;;;32.13;;
16862;SDS011;52193;48.216;-1.698;2023-03-03T06:10:27;37.70;;;33.80;;
16862;SDS011;52193;48.216;-1.698;2023-03-03T06:12:54;36.47;;;32.58;;
16862;SDS011;52193;48.216;-1.698;2023-03-03T06:15:21;38.55;;;34.80;;
16862;SDS011;52193;48.216;-1.698;2023-03-03T06:17:48;37.03;;;33.33;;
16862;SDS011;52193;48.216;-1.698;2023-03-03T06:20:15;39.60;;;35.60;;
16862;SDS011;52193;48.216;-1.698;2023-03-03T06:22:42;42.38;;;38.05;;
16862;SDS011;52193;48.216;-1.698;2023-03-03T06:25:11;39.35;;;35.45;;
16862;SDS011;52193;48.216;-1.698;2023-03-03T06:27:38;37.15;;;33.40;;
16862;SDS011;52193;48.216;-1.698;2023-03-03T06:30:05;40.53;;;36.25;;
16862;SDS011;52193;48.216;-1.698;2023-03-03T06:32:32;38.58;;;34.75;;
16862;SDS011;52193;48.216;-1.698;2023-03-03T06:34:59;37.92;;;34.17;;
16862;SDS011;52193;48.216;-1.698;2023-03-03T06:37:26;39.97;;;35.95;;
16862;SDS011;52193;48.216;-1.698;2023-03-03T06:39:53;39.67;;;35.78;;
16862;SDS011;52193;48.216;-1.698;2023-03-03T06:42:21;39.42;;;35.25;;
16862;SDS011;52193;48.216;-1.698;2023-03-03T06:44:49;39.80;;;35.88;;
16862;SDS011;52193;48.216;-1.698;2023-03-03T06:47:15;40.25;;;36.15;;
16862;SDS011;52193;48.216;-1.698;2023-03-03T06:49:42;43.95;;;39.35;;
16862;SDS011;52193;48.216;-1.698;2023-03-03T06:52:10;42.22;;;38.08;;
16862;SDS011;52193;48.216;-1.698;2023-03-03T06:54:39;42.53;;;38.42;;
16862;SDS011;52193;48.216;-1.698;2023-03-03T06:57:09;41.50;;;37.47;;
16862;SDS011;52193;48.216;-1.698;2023-03-03T06:59:43;39.38;;;35.67;;
16862;SDS011;52193;48.216;-1.698;2023-03-03T07:02:12;41.70;;;37.42;;
16862;SDS011;52193;48.216;-1.698;2023-03-03T07:04:42;39.70;;;35.80;;
16862;SDS011;52193;48.216;-1.698;2023-03-03T07:07:13;39.70;;;35.80;;
16862;SDS011;52193;48.216;-1.698;2023-03-03T07:09:45;41.55;;;37.42;;
16862;SDS011;52193;48.216;-1.698;2023-03-03T07:12:14;39.90;;;35.92;;
16862;SDS011;52193;48.216;-1.698;2023-03-03T07:14:43;40.63;;;36.60;;
16862;SDS011;52193;48.216;-1.698;2023-03-03T07:17:13;41.15;;;37.08;;
16862;SDS011;52193;48.216;-1.698;2023-03-03T07:19:43;43.20;;;38.95;;
16862;SDS011;52193;48.216;-1.698;2023-03-03T07:22:13;42.42;;;37.97;;
16862;SDS011;52193;48.216;-1.698;2023-03-03T07:24:42;39.85;;;35.85;;
16862;SDS011;52193;48.216;-1.698;2023-03-03T07:27:11;40.80;;;36.78;;
16862;SDS011;52193;48.216;-1.698;2023-03-03T07:29:44;39.80;;;35.85;;
16862;SDS011;52193;48.216;-1.698;2023-03-03T07:32:18;40.50;;;36.45;;
16862;SDS011;52193;48.216;-1.698;2023-03-03T07:34:50;42.47;;;38.25;;
16862;SDS011;52193;48.216;-1.698;2023-03-03T07:37:21;42.67;;;38.47;;
16862;SDS011;52193;48.216;-1.698;2023-03-03T07:39:56;40.83;;;36.63;;
16862;SDS011;52193;48.216;-1.698;2023-03-03T07:42:26;41.67;;;37.63;;
16862;SDS011;52193;48.216;-1.698;2023-03-03T07:45:01;40.95;;;36.95;;
16862;SDS011;52193;48.216;-1.698;2023-03-03T07:47:45;40.17;;;36.08;;
16862;SDS011;52193;48.216;-1.698;2023-03-03T07:50:13;41.15;;;37.17;;
16862;SDS011;52193;48.216;-1.698;2023-03-03T07:52:45;41.22;;;37.15;;
16862;SDS011;52193;48.216;-1.698;2023-03-03T07:55:22;41.60;;;37.42;;
16862;SDS011;52193;48.216;-1.698;2023-03-03T07:57:55;40.80;;;36.78;;
16862;SDS011;52193;48.216;-1.698;2023-03-03T08:03:40;41.03;;;36.75;;
16862;SDS011;52193;48.216;-1.698;2023-03-03T08:06:23;41.05;;;36.80;;
16862;SDS011;52193;48.216;-1.698;2023-03-03T08:09:00;40.47;;;36.25;;
16862;SDS011;52193;48.216;-1.698;2023-03-03T08:11:40;45.38;;;40.65;;
16862;SDS011;52193;48.216;-1.698;2023-03-03T08:14:14;44.78;;;40.22;;
16862;SDS011;52193;48.216;-1.698;2023-03-03T08:16:46;44.55;;;40.03;;
16862;SDS011;52193;48.216;-1.698;2023-03-03T08:19:14;39.97;;;35.92;;
16862;SDS011;52193;48.216;-1.698;2023-03-03T08:21:43;40.63;;;36.30;;
16862;SDS011;52193;48.216;-1.698;2023-03-03T08:24:10;42.25;;;38.15;;
16862;SDS011;52193;48.216;-1.698;2023-03-03T08:26:37;40.75;;;36.55;;
16862;SDS011;52193;48.216;-1.698;2023-03-03T08:29:03;43.35;;;38.90;;
16862;SDS011;52193;48.216;-1.698;2023-03-03T08:31:30;40.38;;;36.47;;
16862;SDS011;52193;48.216;-1.698;2023-03-03T08:33:57;39.90;;;35.95;;
16862;SDS011;52193;48.216;-1.698;2023-03-03T08:36:26;40.65;;;36.50;;
16862;SDS011;52193;48.216;-1.698;2023-03-03T08:38:53;38.40;;;34.50;;
16862;SDS011;52193;48.216;-1.698;2023-03-03T08:41:20;47.60;;;42.63;;
16862;SDS011;52193;48.216;-1.698;2023-03-03T08:43:47;40.55;;;36.47;;
16862;SDS011;52193;48.216;-1.698;2023-03-03T08:46:14;38.97;;;35.17;;
16862;SDS011;52193;48.216;-1.698;2023-03-03T08:48:40;42.03;;;37.83;;
16862;SDS011;52193;48.216;-1.698;2023-03-03T08:51:07;40.70;;;36.65;;
16862;SDS011;52193;48.216;-1.698;2023-03-03T08:53:36;38.92;;;35.13;;
16862;SDS011;52193;48.216;-1.698;2023-03-03T08:56:03;37.80;;;34.03;;
16862;SDS011;52193;48.216;-1.698;2023-03-03T08:58:31;38.50;;;34.70;;
16862;SDS011;52193;48.216;-1.698;2023-03-03T09:00:58;38.22;;;34.17;;
16862;SDS011;52193;48.216;-1.698;2023-03-03T09:03:25;38.53;;;34.45;;
16862;SDS011;52193;48.216;-1.698;2023-03-03T09:05:51;42.67;;;38.30;;
16862;SDS011;52193;48.216;-1.698;2023-03-03T09:08:18;39.35;;;35.25;;
16862;SDS011;52193;48.216;-1.698;2023-03-03T09:10:47;36.78;;;33.15;;
16862;SDS011;52193;48.216;-1.698;2023-03-03T09:13:14;36.70;;;33.03;;
16862;SDS011;52193;48.216;-1.698;2023-03-03T09:15:43;42.20;;;37.95;;
16862;SDS011;52193;48.216;-1.698;2023-03-03T09:18:13;38.90;;;34.85;;
16862;SDS011;52193;48.216;-1.698;2023-03-03T09:20:42;41.13;;;36.88;;
16862;SDS011;52193;48.216;-1.698;2023-03-03T09:23:24;41.05;;;36.88;;
16862;SDS011;52193;48.216;-1.698;2023-03-03T09:26:10;37.05;;;33.50;;
16862;SDS011;52193;48.216;-1.698;2023-03-03T09:28:50;37.28;;;33.50;;
16862;SDS011;52193;48.216;-1.698;2023-03-03T09:31:21;35.90;;;32.33;;
16862;SDS011;52193;48.216;-1.698;2023-03-03T09:33:50;35.47;;;32.03;;
16862;SDS011;52193;48.216;-1.698;2023-03-03T09:36:22;35.42;;;31.80;;
16862;SDS011;52193;48.216;-1.698;2023-03-03T09:38:51;32.80;;;29.70;;
16862;SDS011;52193;48.216;-1.698;2023-03-03T09:47:38;29.02;;;26.08;;
16862;SDS011;52193;48.216;-1.698;2023-03-03T09:50:17;29.92;;;26.98;;
16862;SDS011;52193;48.216;-1.698;2023-03-03T09:52:54;29.80;;;26.83;;
16862;SDS011;52193;48.216;-1.698;2023-03-03T09:55:34;28.55;;;25.85;;
16862;SDS011;52193;48.216;-1.698;2023-03-03T09:58:15;28.95;;;26.08;;
16862;SDS011;52193;48.216;-1.698;2023-03-03T10:04:16;26.25;;;23.52;;
16862;SDS011;52193;48.216;-1.698;2023-03-03T10:07:08;19.52;;;17.75;;
16862;SDS011;52193;48.216;-1.698;2023-03-03T10:09:54;27.30;;;24.60;;
16862;SDS011;52193;48.216;-1.698;2023-03-03T10:12:30;28.80;;;25.90;;
16862;SDS011;52193;48.216;-1.698;2023-03-03T10:15:09;25.77;;;23.38;;
16862;SDS011;52193;48.216;-1.698;2023-03-03T10:17:52;25.35;;;22.95;;
16862;SDS011;52193;48.216;-1.698;2023-03-03T10:20:27;26.65;;;24.05;;
16862;SDS011;52193;48.216;-1.698;2023-03-03T10:23:11;27.00;;;24.42;;
16862;SDS011;52193;48.216;-1.698;2023-03-03T10:25:49;25.38;;;23.08;;
16862;SDS011;52193;48.216;-1.698;2023-03-03T10:31:40;27.85;;;25.20;;
16862;SDS011;52193;48.216;-1.698;2023-03-03T10:34:24;25.90;;;23.40;;
16862;SDS011;52193;48.216;-1.698;2023-03-03T10:37:05;24.52;;;21.90;;
16862;SDS011;52193;48.216;-1.698;2023-03-03T10:39:45;28.90;;;26.02;;
16862;SDS011;52193;48.216;-1.698;2023-03-03T10:42:32;25.92;;;23.55;;
16862;SDS011;52193;48.216;-1.698;2023-03-03T10:45:26;26.50;;;24.02;;
16862;SDS011;52193;48.216;-1.698;2023-03-03T10:48:12;24.58;;;22.25;;
16862;SDS011;52193;48.216;-1.698;2023-03-03T10:50:55;27.27;;;24.70;;
16862;SDS011;52193;48.216;-1.698;2023-03-03T10:53:28;27.38;;;24.67;;
16862;SDS011;52193;48.216;-1.698;2023-03-03T10:58:51;24.00;;;21.77;;
16862;SDS011;52193;48.216;-1.698;2023-03-03T11:01:30;24.35;;;22.00;;
16862;SDS011;52193;48.216;-1.698;2023-03-03T11:04:21;23.95;;;21.85;;
16862;SDS011;52193;48.216;-1.698;2023-03-03T11:06:57;22.55;;;20.55;;
16862;SDS011;52193;48.216;-1.698;2023-03-03T11:12:38;21.02;;;19.13;;
16862;SDS011;52193;48.216;-1.698;2023-03-03T11:15:16;22.25;;;20.10;;
16862;SDS011;52193;48.216;-1.698;2023-03-03T11:18:13;23.70;;;21.48;;
16862;SDS011;52193;48.216;-1.698;2023-03-03T11:20:49;24.13;;;21.70;;
16862;SDS011;52193;48.216;-1.698;2023-03-03T11:23:31;19.95;;;18.23;;
16862;SDS011;52193;48.216;-1.698;2023-03-03T11:26:23;23.25;;;20.85;;
16862;SDS011;52193;48.216;-1.698;2023-03-03T11:29:03;19.10;;;17.50;;
16862;SDS011;52193;48.216;-1.698;2023-03-03T11:31:40;20.08;;;18.13;;
16862;SDS011;52193;48.216;-1.698;2023-03-03T11:34:14;20.08;;;18.23;;
16862;SDS011;52193;48.216;-1.698;2023-03-03T11:36:53;20.60;;;18.52;;
16862;SDS011;52193;48.216;-1.698;2023-03-03T11:39:27;19.70;;;17.90;;
16862;SDS011;52193;48.216;-1.698;2023-03-03T11:41:57;18.92;;;17.25;;
16862;SDS011;52193;48.216;-1.698;2023-03-03T11:44:34;18.45;;;16.75;;
16862;SDS011;52193;48.216;-1.698;2023-03-03T11:47:04;19.77;;;17.92;;
16862;SDS011;52193;48.216;-1.698;2023-03-03T11:49:40;21.05;;;19.02;;
16862;SDS011;52193;48.216;-1.698;2023-03-03T11:52:18;17.58;;;15.98;;
16862;SDS011;52193;48.216;-1.698;2023-03-03T11:54:53;16.40;;;14.90;;
16862;SDS011;52193;48.216;-1.698;2023-03-03T11:57:26;15.38;;;14.27;;
16862;SDS011;52193;48.216;-1.698;2023-03-03T12:02:54;20.65;;;18.67;;
16862;SDS011;52193;48.216;-1.698;2023-03-03T12:05:33;18.95;;;17.25;;
16862;SDS011;52193;48.216;-1.698;2023-03-03T12:08:13;17.35;;;15.85;;
16862;SDS011;52193;48.216;-1.698;2023-03-03T12:10:59;17.63;;;15.98;;
16862;SDS011;52193;48.216;-1.698;2023-03-03T12:13:36;17.90;;;16.30;;
16862;SDS011;52193;48.216;-1.698;2023-03-03T12:16:14;18.15;;;16.50;;
16862;SDS011;52193;48.216;-1.698;2023-03-03T12:18:52;16.73;;;15.32;;
16862;SDS011;52193;48.216;-1.698;2023-03-03T12:21:33;15.00;;;13.80;;
16862;SDS011;52193;48.216;-1.698;2023-03-03T12:24:14;17.25;;;15.75;;
16862;SDS011;52193;48.216;-1.698;2023-03-03T12:27:00;16.50;;;15.13;;
16862;SDS011;52193;48.216;-1.698;2023-03-03T12:29:38;15.07;;;13.88;;
16862;SDS011;52193;48.216;-1.698;2023-03-03T12:32:14;18.27;;;16.67;;
16862;SDS011;52193;48.216;-1.698;2023-03-03T12:34:49;16.90;;;15.50;;
16862;SDS011;52193;48.216;-1.698;2023-03-03T12:40:15;16.63;;;15.27;;
16862;SDS011;52193;48.216;-1.698;2023-03-03T12:42:52;16.77;;;15.20;;
16862;SDS011;52193;48.216;-1.698;2023-03-03T12:45:35;15.95;;;14.65;;
16862;SDS011;52193;48.216;-1.698;2023-03-03T12:48:12;16.20;;;14.90;;
16862;SDS011;52193;48.216;-1.698;2023-03-03T12:50:45;16.30;;;14.90;;
16862;SDS011;52193;48.216;-1.698;2023-03-03T12:53:32;17.23;;;15.77;;
16862;SDS011;52193;48.216;-1.698;2023-03-03T12:56:10;17.10;;;15.55;;
16862;SDS011;52193;48.216;-1.698;2023-03-03T12:58:42;17.35;;;15.80;;
16862;SDS011;52193;48.216;-1.698;2023-03-03T13:01:27;17.20;;;15.70;;
16862;SDS011;52193;48.216;-1.698;2023-03-03T13:04:07;18.88;;;17.15;;
16862;SDS011;52193;48.216;-1.698;2023-03-03T13:06:41;19.70;;;17.85;;
16862;SDS011;52193;48.216;-1.698;2023-03-03T13:09:16;16.25;;;14.95;;
16862;SDS011;52193;48.216;-1.698;2023-03-03T13:11:54;16.05;;;14.75;;
16862;SDS011;52193;48.216;-1.698;2023-03-03T13:14:38;16.98;;;15.57;;
16862;SDS011;52193;48.216;-1.698;2023-03-03T13:17:17;17.83;;;16.33;;
16862;SDS011;52193;48.216;-1.698;2023-03-03T13:19:49;18.15;;;16.58;;
16862;SDS011;52193;48.216;-1.698;2023-03-03T13:22:26;18.05;;;16.55;;
16862;SDS011;52193;48.216;-1.698;2023-03-03T13:25:02;17.35;;;15.95;;
16862;SDS011;52193;48.216;-1.698;2023-03-03T13:27:39;19.17;;;17.55;;
16862;SDS011;52193;48.216;-1.698;2023-03-03T13:30:15;20.70;;;18.60;;
16862;SDS011;52193;48.216;-1.698;2023-03-03T13:32:46;19.67;;;18.08;;
16862;SDS011;52193;48.216;-1.698;2023-03-03T13:35:23;19.58;;;17.75;;
16862;SDS011;52193;48.216;-1.698;2023-03-03T13:37:57;18.00;;;16.38;;
16862;SDS011;52193;48.216;-1.698;2023-03-03T13:40:30;22.25;;;20.35;;
16862;SDS011;52193;48.216;-1.698;2023-03-03T13:43:07;18.00;;;16.42;;
16862;SDS011;52193;48.216;-1.698;2023-03-03T13:45:45;18.05;;;16.55;;
16862;SDS011;52193;48.216;-1.698;2023-03-03T13:48:23;16.23;;;14.93;;
16862;SDS011;52193;48.216;-1.698;2023-03-03T13:51:02;14.90;;;13.75;;
16862;SDS011;52193;48.216;-1.698;2023-03-03T13:53:38;14.10;;;13.05;;
16862;SDS011;52193;48.216;-1.698;2023-03-03T13:56:14;14.65;;;13.55;;
16862;SDS011;52193;48.216;-1.698;2023-03-03T13:58:53;14.38;;;13.15;;
16862;SDS011;52193;48.216;-1.698;2023-03-03T14:01:31;13.77;;;12.77;;
16862;SDS011;52193;48.216;-1.698;2023-03-03T14:04:09;13.63;;;12.52;;
16862;SDS011;52193;48.216;-1.698;2023-03-03T14:06:42;15.10;;;13.80;;
16862;SDS011;52193;48.216;-1.698;2023-03-03T14:09:29;15.32;;;14.15;;
16862;SDS011;52193;48.216;-1.698;2023-03-03T14:12:17;12.18;;;11.27;;
16862;SDS011;52193;48.216;-1.698;2023-03-03T14:14:52;11.57;;;10.57;;
16862;SDS011;52193;48.216;-1.698;2023-03-03T14:17:31;10.23;;;9.35;;
16862;SDS011;52193;48.216;-1.698;2023-03-03T14:20:11;10.40;;;9.50;;
16862;SDS011;52193;48.216;-1.698;2023-03-03T14:22:44;11.05;;;10.15;;
16862;SDS011;52193;48.216;-1.698;2023-03-03T14:25:15;11.20;;;10.20;;
16862;SDS011;52193;48.216;-1.698;2023-03-03T14:27:52;10.95;;;10.02;;
16862;SDS011;52193;48.216;-1.698;2023-03-03T14:30:29;11.13;;;8.55;;
16862;SDS011;52193;48.216;-1.698;2023-03-03T14:36:01;9.40;;;8.70;;
16862;SDS011;52193;48.216;-1.698;2023-03-03T14:38:45;8.57;;;7.97;;
16862;SDS011;52193;48.216;-1.698;2023-03-03T14:41:17;7.90;;;7.30;;
16862;SDS011;52193;48.216;-1.698;2023-03-03T14:43:54;7.03;;;6.53;;
16862;SDS011;52193;48.216;-1.698;2023-03-03T14:46:30;8.70;;;7.85;;
16862;SDS011;52193;48.216;-1.698;2023-03-03T14:49:05;7.38;;;6.88;;
16862;SDS011;52193;48.216;-1.698;2023-03-03T14:51:40;7.53;;;6.55;;
16862;SDS011;52193;48.216;-1.698;2023-03-03T14:54:13;7.30;;;6.63;;
16862;SDS011;52193;48.216;-1.698;2023-03-03T14:56:54;6.65;;;6.18;;
16862;SDS011;52193;48.216;-1.698;2023-03-03T14:59:27;6.85;;;6.25;;
16862;SDS011;52193;48.216;-1.698;2023-03-03T15:01:59;7.40;;;6.70;;
16862;SDS011;52193;48.216;-1.698;2023-03-03T15:04:50;5.82;;;5.35;;
16862;SDS011;52193;48.216;-1.698;2023-03-03T15:07:41;6.43;;;5.93;;
16862;SDS011;52193;48.216;-1.698;2023-03-03T15:10:09;6.88;;;6.30;;